sensor_id;sensor_type;location;lat;lon;timestamp;P1;durP1;ratioP1;P2;durP2;ratioP2
41685;SDS011;27370;42.764;23.432;2023-07-29T00:00:49;8.23;;;4.63;;
41685;SDS011;27370;42.764;23.432;2023-07-29T00:03:14;9.18;;;4.53;;
41685;SDS011;27370;42.764;23.432;2023-07-29T00:05:40;7.80;;;4.05;;
41685;SDS011;27370;42.764;23.432;2023-07-29T00:08:06;9.23;;;4.80;;
41685;SDS011;27370;42.764;23.432;2023-07-29T00:10:32;10.40;;;4.72;;
41685;SDS011;27370;42.764;23.432;2023-07-29T00:13:00;7.80;;;4.00;;
41685;SDS011;27370;42.764;23.432;2023-07-29T00:15:26;8.10;;;3.92;;
41685;SDS011;27370;42.764;23.432;2023-07-29T00:17:51;8.45;;;4.28;;
41685;SDS011;27370;42.764;23.432;2023-07-29T00:20:17;8.48;;;4.20;;
41685;SDS011;27370;42.764;23.432;2023-07-29T00:22:42;7.95;;;3.83;;
41685;SDS011;27370;42.764;23.432;2023-07-29T00:25:08;7.13;;;3.72;;
41685;SDS011;27370;42.764;23.432;2023-07-29T00:27:34;8.50;;;4.28;;
41685;SDS011;27370;42.764;23.432;2023-07-29T00:29:59;8.13;;;3.97;;
41685;SDS011;27370;42.764;23.432;2023-07-29T00:32:25;6.40;;;3.53;;
41685;SDS011;27370;42.764;23.432;2023-07-29T00:34:52;8.60;;;3.78;;
41685;SDS011;27370;42.764;23.432;2023-07-29T00:37:17;6.97;;;3.15;;
41685;SDS011;27370;42.764;23.432;2023-07-29T00:39:44;9.80;;;3.92;;
41685;SDS011;27370;42.764;23.432;2023-07-29T00:42:10;7.03;;;3.70;;
41685;SDS011;27370;42.764;23.432;2023-07-29T00:44:35;7.82;;;3.30;;
41685;SDS011;27370;42.764;23.432;2023-07-29T00:47:02;6.00;;;2.92;;
41685;SDS011;27370;42.764;23.432;2023-07-29T00:49:29;5.97;;;3.28;;
41685;SDS011;27370;42.764;23.432;2023-07-29T00:51:55;7.32;;;3.40;;
41685;SDS011;27370;42.764;23.432;2023-07-29T00:54:24;5.75;;;3.20;;
41685;SDS011;27370;42.764;23.432;2023-07-29T00:56:49;6.68;;;3.40;;
41685;SDS011;27370;42.764;23.432;2023-07-29T00:59:15;5.82;;;3.50;;
41685;SDS011;27370;42.764;23.432;2023-07-29T01:01:41;7.03;;;3.38;;
41685;SDS011;27370;42.764;23.432;2023-07-29T01:04:07;6.60;;;3.38;;
41685;SDS011;27370;42.764;23.432;2023-07-29T01:15:10;7.35;;;3.60;;
41685;SDS011;27370;42.764;23.432;2023-07-29T01:17:52;7.00;;;3.65;;
41685;SDS011;27370;42.764;23.432;2023-07-29T01:20:20;7.78;;;3.72;;
41685;SDS011;27370;42.764;23.432;2023-07-29T01:22:49;7.43;;;4.05;;
41685;SDS011;27370;42.764;23.432;2023-07-29T01:25:16;9.05;;;3.92;;
41685;SDS011;27370;42.764;23.432;2023-07-29T01:27:42;8.50;;;3.95;;
41685;SDS011;27370;42.764;23.432;2023-07-29T01:30:13;7.93;;;4.03;;
41685;SDS011;27370;42.764;23.432;2023-07-29T01:37:52;8.07;;;4.20;;
41685;SDS011;27370;42.764;23.432;2023-07-29T01:40:26;9.73;;;4.85;;
41685;SDS011;27370;42.764;23.432;2023-07-29T01:42:53;10.82;;;4.88;;
41685;SDS011;27370;42.764;23.432;2023-07-29T01:45:22;11.38;;;5.00;;
41685;SDS011;27370;42.764;23.432;2023-07-29T01:47:49;10.00;;;5.00;;
41685;SDS011;27370;42.764;23.432;2023-07-29T01:50:15;11.05;;;5.18;;
41685;SDS011;27370;42.764;23.432;2023-07-29T01:52:40;9.50;;;5.32;;
41685;SDS011;27370;42.764;23.432;2023-07-29T01:55:06;9.95;;;5.05;;
41685;SDS011;27370;42.764;23.432;2023-07-29T01:57:32;9.35;;;4.40;;
41685;SDS011;27370;42.764;23.432;2023-07-29T01:59:57;9.82;;;5.30;;
41685;SDS011;27370;42.764;23.432;2023-07-29T02:02:23;10.02;;;4.93;;
41685;SDS011;27370;42.764;23.432;2023-07-29T02:04:48;10.52;;;5.30;;
41685;SDS011;27370;42.764;23.432;2023-07-29T02:07:17;11.35;;;5.10;;
41685;SDS011;27370;42.764;23.432;2023-07-29T02:09:44;9.68;;;5.60;;
41685;SDS011;27370;42.764;23.432;2023-07-29T02:12:09;14.10;;;5.65;;
41685;SDS011;27370;42.764;23.432;2023-07-29T02:14:37;13.13;;;5.90;;
41685;SDS011;27370;42.764;23.432;2023-07-29T02:17:03;9.45;;;5.30;;
41685;SDS011;27370;42.764;23.432;2023-07-29T02:19:28;11.82;;;5.50;;
41685;SDS011;27370;42.764;23.432;2023-07-29T02:21:54;10.88;;;5.45;;
41685;SDS011;27370;42.764;23.432;2023-07-29T02:24:19;11.90;;;5.70;;
41685;SDS011;27370;42.764;23.432;2023-07-29T02:26:45;9.00;;;4.97;;
41685;SDS011;27370;42.764;23.432;2023-07-29T02:29:10;9.82;;;4.50;;
41685;SDS011;27370;42.764;23.432;2023-07-29T02:31:36;9.38;;;4.88;;
41685;SDS011;27370;42.764;23.432;2023-07-29T02:34:02;10.15;;;4.97;;
41685;SDS011;27370;42.764;23.432;2023-07-29T02:36:28;9.70;;;4.82;;
41685;SDS011;27370;42.764;23.432;2023-07-29T02:38:54;9.50;;;4.95;;
41685;SDS011;27370;42.764;23.432;2023-07-29T02:41:19;9.60;;;5.22;;
41685;SDS011;27370;42.764;23.432;2023-07-29T02:43:49;10.27;;;5.45;;
41685;SDS011;27370;42.764;23.432;2023-07-29T02:46:15;10.25;;;5.63;;
41685;SDS011;27370;42.764;23.432;2023-07-29T02:48:41;9.88;;;5.00;;
41685;SDS011;27370;42.764;23.432;2023-07-29T02:51:08;9.40;;;5.25;;
41685;SDS011;27370;42.764;23.432;2023-07-29T02:53:33;8.90;;;4.90;;
41685;SDS011;27370;42.764;23.432;2023-07-29T02:56:02;9.82;;;4.75;;
41685;SDS011;27370;42.764;23.432;2023-07-29T02:58:28;10.18;;;4.78;;
41685;SDS011;27370;42.764;23.432;2023-07-29T03:01:00;9.13;;;5.05;;
41685;SDS011;27370;42.764;23.432;2023-07-29T03:03:27;9.68;;;4.93;;
41685;SDS011;27370;42.764;23.432;2023-07-29T03:08:26;10.77;;;4.93;;
41685;SDS011;27370;42.764;23.432;2023-07-29T03:10:52;11.43;;;5.60;;
41685;SDS011;27370;42.764;23.432;2023-07-29T03:13:17;9.15;;;5.28;;
41685;SDS011;27370;42.764;23.432;2023-07-29T03:15:43;9.75;;;5.03;;
41685;SDS011;27370;42.764;23.432;2023-07-29T03:18:08;8.70;;;4.70;;
41685;SDS011;27370;42.764;23.432;2023-07-29T03:20:34;9.75;;;4.88;;
41685;SDS011;27370;42.764;23.432;2023-07-29T03:22:59;10.23;;;5.38;;
41685;SDS011;27370;42.764;23.432;2023-07-29T03:25:25;11.27;;;5.85;;
41685;SDS011;27370;42.764;23.432;2023-07-29T03:27:50;10.93;;;5.40;;
41685;SDS011;27370;42.764;23.432;2023-07-29T03:30:18;11.52;;;5.30;;
41685;SDS011;27370;42.764;23.432;2023-07-29T03:32:45;10.60;;;5.30;;
41685;SDS011;27370;42.764;23.432;2023-07-29T03:35:11;10.98;;;5.72;;
41685;SDS011;27370;42.764;23.432;2023-07-29T03:37:36;11.57;;;6.18;;
41685;SDS011;27370;42.764;23.432;2023-07-29T03:40:02;10.88;;;5.60;;
41685;SDS011;27370;42.764;23.432;2023-07-29T03:42:28;13.02;;;5.85;;
41685;SDS011;27370;42.764;23.432;2023-07-29T03:44:53;11.52;;;5.75;;
41685;SDS011;27370;42.764;23.432;2023-07-29T03:47:19;13.20;;;5.93;;
41685;SDS011;27370;42.764;23.432;2023-07-29T03:49:45;12.35;;;5.18;;
41685;SDS011;27370;42.764;23.432;2023-07-29T03:52:11;12.20;;;5.55;;
41685;SDS011;27370;42.764;23.432;2023-07-29T03:54:37;12.50;;;6.05;;
41685;SDS011;27370;42.764;23.432;2023-07-29T03:57:02;11.90;;;4.93;;
41685;SDS011;27370;42.764;23.432;2023-07-29T03:59:28;12.57;;;5.20;;
41685;SDS011;27370;42.764;23.432;2023-07-29T04:01:54;9.98;;;5.28;;
41685;SDS011;27370;42.764;23.432;2023-07-29T04:04:20;12.05;;;6.00;;
41685;SDS011;27370;42.764;23.432;2023-07-29T04:06:45;10.60;;;5.30;;
41685;SDS011;27370;42.764;23.432;2023-07-29T04:09:11;12.73;;;5.40;;
41685;SDS011;27370;42.764;23.432;2023-07-29T04:11:37;12.32;;;6.10;;
41685;SDS011;27370;42.764;23.432;2023-07-29T04:14:02;12.00;;;6.20;;
41685;SDS011;27370;42.764;23.432;2023-07-29T04:16:28;13.50;;;5.53;;
41685;SDS011;27370;42.764;23.432;2023-07-29T04:18:54;13.40;;;6.03;;
41685;SDS011;27370;42.764;23.432;2023-07-29T04:21:19;11.55;;;6.10;;
41685;SDS011;27370;42.764;23.432;2023-07-29T04:23:45;13.35;;;5.47;;
41685;SDS011;27370;42.764;23.432;2023-07-29T04:26:11;10.98;;;6.13;;
41685;SDS011;27370;42.764;23.432;2023-07-29T04:28:37;10.02;;;5.93;;
41685;SDS011;27370;42.764;23.432;2023-07-29T04:31:02;11.95;;;5.75;;
41685;SDS011;27370;42.764;23.432;2023-07-29T04:33:29;11.45;;;5.75;;
41685;SDS011;27370;42.764;23.432;2023-07-29T04:35:55;14.00;;;6.38;;
41685;SDS011;27370;42.764;23.432;2023-07-29T04:38:20;12.40;;;6.93;;
41685;SDS011;27370;42.764;23.432;2023-07-29T04:40:48;12.52;;;6.60;;
41685;SDS011;27370;42.764;23.432;2023-07-29T04:43:14;10.75;;;6.25;;
41685;SDS011;27370;42.764;23.432;2023-07-29T04:45:43;13.13;;;6.43;;
41685;SDS011;27370;42.764;23.432;2023-07-29T04:50:34;11.30;;;6.20;;
41685;SDS011;27370;42.764;23.432;2023-07-29T04:52:59;10.80;;;6.20;;
41685;SDS011;27370;42.764;23.432;2023-07-29T04:55:25;11.70;;;6.05;;
41685;SDS011;27370;42.764;23.432;2023-07-29T04:57:50;10.88;;;5.75;;
41685;SDS011;27370;42.764;23.432;2023-07-29T05:00:16;10.57;;;6.20;;
41685;SDS011;27370;42.764;23.432;2023-07-29T05:02:42;9.80;;;5.57;;
41685;SDS011;27370;42.764;23.432;2023-07-29T05:05:07;11.07;;;5.60;;
41685;SDS011;27370;42.764;23.432;2023-07-29T05:07:33;9.82;;;5.32;;
41685;SDS011;27370;42.764;23.432;2023-07-29T05:09:58;11.52;;;5.30;;
41685;SDS011;27370;42.764;23.432;2023-07-29T05:12:24;10.45;;;4.93;;
41685;SDS011;27370;42.764;23.432;2023-07-29T05:14:49;9.05;;;4.50;;
41685;SDS011;27370;42.764;23.432;2023-07-29T05:17:15;10.35;;;5.32;;
41685;SDS011;27370;42.764;23.432;2023-07-29T05:19:41;10.55;;;5.20;;
41685;SDS011;27370;42.764;23.432;2023-07-29T05:22:06;10.27;;;5.20;;
41685;SDS011;27370;42.764;23.432;2023-07-29T05:24:32;9.60;;;4.85;;
41685;SDS011;27370;42.764;23.432;2023-07-29T05:26:57;12.35;;;4.57;;
41685;SDS011;27370;42.764;23.432;2023-07-29T05:29:24;9.27;;;4.68;;
41685;SDS011;27370;42.764;23.432;2023-07-29T05:31:50;8.48;;;4.30;;
41685;SDS011;27370;42.764;23.432;2023-07-29T05:34:15;9.18;;;4.68;;
41685;SDS011;27370;42.764;23.432;2023-07-29T05:36:41;8.90;;;4.85;;
41685;SDS011;27370;42.764;23.432;2023-07-29T05:39:06;9.23;;;4.45;;
41685;SDS011;27370;42.764;23.432;2023-07-29T05:41:32;8.60;;;4.70;;
41685;SDS011;27370;42.764;23.432;2023-07-29T05:43:58;10.15;;;4.70;;
41685;SDS011;27370;42.764;23.432;2023-07-29T05:46:23;8.15;;;3.60;;
41685;SDS011;27370;42.764;23.432;2023-07-29T05:48:49;10.07;;;4.70;;
41685;SDS011;27370;42.764;23.432;2023-07-29T05:51:14;8.88;;;4.03;;
41685;SDS011;27370;42.764;23.432;2023-07-29T05:53:40;9.13;;;4.30;;
41685;SDS011;27370;42.764;23.432;2023-07-29T05:56:05;11.23;;;4.72;;
41685;SDS011;27370;42.764;23.432;2023-07-29T05:58:31;10.45;;;5.00;;
41685;SDS011;27370;42.764;23.432;2023-07-29T06:00:57;8.80;;;4.60;;
41685;SDS011;27370;42.764;23.432;2023-07-29T06:03:22;10.00;;;4.50;;
41685;SDS011;27370;42.764;23.432;2023-07-29T06:05:50;9.20;;;4.45;;
41685;SDS011;27370;42.764;23.432;2023-07-29T06:08:15;9.35;;;4.60;;
41685;SDS011;27370;42.764;23.432;2023-07-29T06:10:41;9.50;;;4.63;;
41685;SDS011;27370;42.764;23.432;2023-07-29T06:13:06;9.82;;;4.90;;
41685;SDS011;27370;42.764;23.432;2023-07-29T06:15:32;9.98;;;4.30;;
41685;SDS011;27370;42.764;23.432;2023-07-29T06:17:57;8.85;;;4.20;;
41685;SDS011;27370;42.764;23.432;2023-07-29T06:20:23;9.40;;;5.13;;
41685;SDS011;27370;42.764;23.432;2023-07-29T06:22:49;13.85;;;4.95;;
41685;SDS011;27370;42.764;23.432;2023-07-29T06:25:14;8.65;;;4.30;;
41685;SDS011;27370;42.764;23.432;2023-07-29T06:27:40;11.30;;;4.43;;
41685;SDS011;27370;42.764;23.432;2023-07-29T06:30:05;11.15;;;4.22;;
41685;SDS011;27370;42.764;23.432;2023-07-29T06:32:31;9.68;;;4.32;;
41685;SDS011;27370;42.764;23.432;2023-07-29T06:34:57;9.30;;;4.60;;
41685;SDS011;27370;42.764;23.432;2023-07-29T06:37:22;10.27;;;4.70;;
41685;SDS011;27370;42.764;23.432;2023-07-29T06:39:48;8.35;;;4.35;;
41685;SDS011;27370;42.764;23.432;2023-07-29T06:42:13;8.80;;;3.85;;
41685;SDS011;27370;42.764;23.432;2023-07-29T06:44:39;9.93;;;4.30;;
41685;SDS011;27370;42.764;23.432;2023-07-29T06:47:05;10.82;;;4.72;;
41685;SDS011;27370;42.764;23.432;2023-07-29T06:49:31;13.30;;;4.55;;
41685;SDS011;27370;42.764;23.432;2023-07-29T06:51:56;8.57;;;4.15;;
41685;SDS011;27370;42.764;23.432;2023-07-29T06:54:25;8.00;;;4.00;;
41685;SDS011;27370;42.764;23.432;2023-07-29T06:56:53;8.02;;;3.72;;
41685;SDS011;27370;42.764;23.432;2023-07-29T06:59:19;7.55;;;4.03;;
41685;SDS011;27370;42.764;23.432;2023-07-29T07:01:45;9.60;;;4.25;;
41685;SDS011;27370;42.764;23.432;2023-07-29T07:04:10;8.73;;;4.00;;
41685;SDS011;27370;42.764;23.432;2023-07-29T07:06:36;9.43;;;3.70;;
41685;SDS011;27370;42.764;23.432;2023-07-29T07:09:01;8.95;;;3.60;;
41685;SDS011;27370;42.764;23.432;2023-07-29T07:11:27;7.78;;;3.92;;
41685;SDS011;27370;42.764;23.432;2023-07-29T07:13:53;5.80;;;3.38;;
41685;SDS011;27370;42.764;23.432;2023-07-29T07:16:18;9.88;;;4.00;;
41685;SDS011;27370;42.764;23.432;2023-07-29T07:18:44;10.23;;;4.13;;
41685;SDS011;27370;42.764;23.432;2023-07-29T07:21:09;9.55;;;3.80;;
41685;SDS011;27370;42.764;23.432;2023-07-29T07:23:35;8.07;;;4.38;;
41685;SDS011;27370;42.764;23.432;2023-07-29T07:26:00;8.38;;;4.15;;
41685;SDS011;27370;42.764;23.432;2023-07-29T07:28:26;8.05;;;3.90;;
41685;SDS011;27370;42.764;23.432;2023-07-29T07:30:51;8.13;;;3.50;;
41685;SDS011;27370;42.764;23.432;2023-07-29T07:33:17;8.77;;;3.85;;
41685;SDS011;27370;42.764;23.432;2023-07-29T07:35:42;11.07;;;4.00;;
41685;SDS011;27370;42.764;23.432;2023-07-29T07:38:08;8.55;;;3.83;;
41685;SDS011;27370;42.764;23.432;2023-07-29T07:40:35;7.07;;;3.22;;
41685;SDS011;27370;42.764;23.432;2023-07-29T07:43:01;6.50;;;3.20;;
41685;SDS011;27370;42.764;23.432;2023-07-29T07:45:27;7.30;;;3.70;;
41685;SDS011;27370;42.764;23.432;2023-07-29T07:47:52;6.60;;;3.47;;
41685;SDS011;27370;42.764;23.432;2023-07-29T07:50:19;8.35;;;3.28;;
41685;SDS011;27370;42.764;23.432;2023-07-29T07:52:45;6.80;;;3.40;;
41685;SDS011;27370;42.764;23.432;2023-07-29T07:55:11;9.23;;;3.80;;
41685;SDS011;27370;42.764;23.432;2023-07-29T07:57:36;8.98;;;3.50;;
41685;SDS011;27370;42.764;23.432;2023-07-29T08:00:02;6.93;;;3.75;;
41685;SDS011;27370;42.764;23.432;2023-07-29T08:02:38;8.02;;;3.90;;
41685;SDS011;27370;42.764;23.432;2023-07-29T08:05:03;9.82;;;3.25;;
41685;SDS011;27370;42.764;23.432;2023-07-29T08:07:29;8.20;;;3.58;;
41685;SDS011;27370;42.764;23.432;2023-07-29T08:09:55;7.55;;;3.13;;
41685;SDS011;27370;42.764;23.432;2023-07-29T08:12:20;7.95;;;3.08;;
41685;SDS011;27370;42.764;23.432;2023-07-29T08:14:46;6.43;;;3.20;;
41685;SDS011;27370;42.764;23.432;2023-07-29T08:17:11;8.80;;;3.53;;
41685;SDS011;27370;42.764;23.432;2023-07-29T08:19:36;5.15;;;2.67;;
41685;SDS011;27370;42.764;23.432;2023-07-29T08:22:02;5.93;;;3.15;;
41685;SDS011;27370;42.764;23.432;2023-07-29T08:24:29;6.47;;;2.97;;
41685;SDS011;27370;42.764;23.432;2023-07-29T08:26:54;8.48;;;3.20;;
41685;SDS011;27370;42.764;23.432;2023-07-29T08:29:20;6.63;;;3.30;;
41685;SDS011;27370;42.764;23.432;2023-07-29T08:31:45;8.75;;;3.65;;
41685;SDS011;27370;42.764;23.432;2023-07-29T08:34:10;6.82;;;3.30;;
41685;SDS011;27370;42.764;23.432;2023-07-29T08:36:36;9.48;;;3.60;;
41685;SDS011;27370;42.764;23.432;2023-07-29T08:39:02;7.05;;;3.10;;
41685;SDS011;27370;42.764;23.432;2023-07-29T08:41:32;6.68;;;3.28;;
41685;SDS011;27370;42.764;23.432;2023-07-29T08:44:23;6.72;;;2.80;;
41685;SDS011;27370;42.764;23.432;2023-07-29T08:46:51;6.50;;;3.30;;
41685;SDS011;27370;42.764;23.432;2023-07-29T08:49:19;7.05;;;2.92;;
41685;SDS011;27370;42.764;23.432;2023-07-29T08:51:48;6.80;;;2.95;;
41685;SDS011;27370;42.764;23.432;2023-07-29T08:54:14;5.47;;;2.88;;
41685;SDS011;27370;42.764;23.432;2023-07-29T08:56:43;7.15;;;3.03;;
41685;SDS011;27370;42.764;23.432;2023-07-29T08:59:10;7.50;;;2.60;;
41685;SDS011;27370;42.764;23.432;2023-07-29T09:01:40;5.55;;;2.88;;
41685;SDS011;27370;42.764;23.432;2023-07-29T09:04:06;5.82;;;2.80;;
41685;SDS011;27370;42.764;23.432;2023-07-29T09:06:32;7.35;;;2.50;;
41685;SDS011;27370;42.764;23.432;2023-07-29T09:08:58;6.20;;;2.50;;
41685;SDS011;27370;42.764;23.432;2023-07-29T09:11:25;7.35;;;2.28;;
41685;SDS011;27370;42.764;23.432;2023-07-29T09:13:56;7.35;;;2.40;;
41685;SDS011;27370;42.764;23.432;2023-07-29T09:16:22;5.10;;;2.30;;
41685;SDS011;27370;42.764;23.432;2023-07-29T09:18:48;6.18;;;2.00;;
41685;SDS011;27370;42.764;23.432;2023-07-29T09:21:26;4.25;;;2.30;;
41685;SDS011;27370;42.764;23.432;2023-07-29T09:23:53;6.05;;;2.25;;
41685;SDS011;27370;42.764;23.432;2023-07-29T09:26:23;4.03;;;2.15;;
41685;SDS011;27370;42.764;23.432;2023-07-29T09:28:52;3.53;;;1.70;;
41685;SDS011;27370;42.764;23.432;2023-07-29T09:31:22;3.83;;;1.90;;
41685;SDS011;27370;42.764;23.432;2023-07-29T09:33:48;5.47;;;2.40;;
41685;SDS011;27370;42.764;23.432;2023-07-29T09:36:14;4.03;;;2.17;;
41685;SDS011;27370;42.764;23.432;2023-07-29T09:38:40;4.47;;;2.30;;
41685;SDS011;27370;42.764;23.432;2023-07-29T09:41:06;3.10;;;1.95;;
41685;SDS011;27370;42.764;23.432;2023-07-29T09:43:32;3.50;;;1.98;;
41685;SDS011;27370;42.764;23.432;2023-07-29T09:46:03;4.45;;;2.15;;
41685;SDS011;27370;42.764;23.432;2023-07-29T09:48:36;5.72;;;2.40;;
41685;SDS011;27370;42.764;23.432;2023-07-29T09:51:09;3.67;;;2.28;;
41685;SDS011;27370;42.764;23.432;2023-07-29T09:53:48;4.95;;;2.45;;
41685;SDS011;27370;42.764;23.432;2023-07-29T09:56:15;5.05;;;2.10;;
41685;SDS011;27370;42.764;23.432;2023-07-29T09:58:42;5.28;;;2.38;;
41685;SDS011;27370;42.764;23.432;2023-07-29T10:01:08;3.35;;;2.20;;
41685;SDS011;27370;42.764;23.432;2023-07-29T10:03:35;6.22;;;2.35;;
41685;SDS011;27370;42.764;23.432;2023-07-29T10:06:05;6.72;;;2.40;;
41685;SDS011;27370;42.764;23.432;2023-07-29T10:08:31;5.97;;;2.20;;
41685;SDS011;27370;42.764;23.432;2023-07-29T10:10:59;5.20;;;2.30;;
41685;SDS011;27370;42.764;23.432;2023-07-29T10:13:25;3.47;;;1.90;;
41685;SDS011;27370;42.764;23.432;2023-07-29T10:15:51;4.15;;;2.13;;
41685;SDS011;27370;42.764;23.432;2023-07-29T10:18:21;3.47;;;2.17;;
41685;SDS011;27370;42.764;23.432;2023-07-29T10:20:49;4.22;;;2.20;;
41685;SDS011;27370;42.764;23.432;2023-07-29T10:23:15;7.95;;;2.28;;
41685;SDS011;27370;42.764;23.432;2023-07-29T10:25:49;4.40;;;2.40;;
41685;SDS011;27370;42.764;23.432;2023-07-29T10:28:20;5.07;;;2.17;;
41685;SDS011;27370;42.764;23.432;2023-07-29T10:30:50;7.53;;;2.22;;
41685;SDS011;27370;42.764;23.432;2023-07-29T10:33:16;4.40;;;2.40;;
41685;SDS011;27370;42.764;23.432;2023-07-29T10:35:42;3.78;;;2.17;;
41685;SDS011;27370;42.764;23.432;2023-07-29T10:38:07;4.15;;;2.17;;
41685;SDS011;27370;42.764;23.432;2023-07-29T10:40:46;3.22;;;2.03;;
41685;SDS011;27370;42.764;23.432;2023-07-29T10:43:25;3.95;;;2.05;;
41685;SDS011;27370;42.764;23.432;2023-07-29T10:45:52;4.68;;;2.30;;
41685;SDS011;27370;42.764;23.432;2023-07-29T10:54:02;2.92;;;2.08;;
41685;SDS011;27370;42.764;23.432;2023-07-29T10:56:35;5.03;;;2.00;;
41685;SDS011;27370;42.764;23.432;2023-07-29T11:01:53;4.28;;;2.20;;
41685;SDS011;27370;42.764;23.432;2023-07-29T11:09:43;4.78;;;2.00;;
41685;SDS011;27370;42.764;23.432;2023-07-29T11:17:37;3.42;;;1.70;;
41685;SDS011;27370;42.764;23.432;2023-07-29T11:20:04;4.80;;;2.03;;
41685;SDS011;27370;42.764;23.432;2023-07-29T11:22:32;4.03;;;1.80;;
41685;SDS011;27370;42.764;23.432;2023-07-29T11:24:58;2.70;;;1.70;;
41685;SDS011;27370;42.764;23.432;2023-07-29T11:27:23;3.33;;;1.90;;
41685;SDS011;27370;42.764;23.432;2023-07-29T11:29:49;4.13;;;1.70;;
41685;SDS011;27370;42.764;23.432;2023-07-29T11:32:15;3.50;;;1.50;;
41685;SDS011;27370;42.764;23.432;2023-07-29T11:34:41;7.50;;;2.08;;
41685;SDS011;27370;42.764;23.432;2023-07-29T11:37:10;2.60;;;1.50;;
41685;SDS011;27370;42.764;23.432;2023-07-29T11:39:40;4.55;;;1.60;;
41685;SDS011;27370;42.764;23.432;2023-07-29T11:42:06;2.08;;;1.30;;
41685;SDS011;27370;42.764;23.432;2023-07-29T11:44:36;3.17;;;1.38;;
41685;SDS011;27370;42.764;23.432;2023-07-29T11:47:01;1.98;;;1.40;;
41685;SDS011;27370;42.764;23.432;2023-07-29T11:49:27;4.50;;;1.55;;
41685;SDS011;27370;42.764;23.432;2023-07-29T11:51:53;7.80;;;1.60;;
41685;SDS011;27370;42.764;23.432;2023-07-29T11:54:18;2.58;;;1.48;;
41685;SDS011;27370;42.764;23.432;2023-07-29T11:56:47;3.40;;;1.55;;
41685;SDS011;27370;42.764;23.432;2023-07-29T11:59:13;6.20;;;1.70;;
41685;SDS011;27370;42.764;23.432;2023-07-29T12:01:40;4.47;;;1.70;;
41685;SDS011;27370;42.764;23.432;2023-07-29T12:04:05;3.03;;;1.33;;
41685;SDS011;27370;42.764;23.432;2023-07-29T12:06:31;2.65;;;1.50;;
41685;SDS011;27370;42.764;23.432;2023-07-29T12:08:57;5.45;;;1.65;;
41685;SDS011;27370;42.764;23.432;2023-07-29T12:11:23;4.13;;;1.40;;
41685;SDS011;27370;42.764;23.432;2023-07-29T12:13:48;3.13;;;1.08;;
41685;SDS011;27370;42.764;23.432;2023-07-29T12:16:17;2.67;;;1.10;;
41685;SDS011;27370;42.764;23.432;2023-07-29T12:18:45;3.38;;;1.33;;
41685;SDS011;27370;42.764;23.432;2023-07-29T12:21:13;3.85;;;1.40;;
41685;SDS011;27370;42.764;23.432;2023-07-29T12:23:39;9.02;;;1.70;;
41685;SDS011;27370;42.764;23.432;2023-07-29T12:26:05;3.75;;;1.45;;
41685;SDS011;27370;42.764;23.432;2023-07-29T12:28:30;3.30;;;1.33;;
41685;SDS011;27370;42.764;23.432;2023-07-29T12:30:56;3.40;;;1.20;;
41685;SDS011;27370;42.764;23.432;2023-07-29T12:33:37;3.63;;;1.40;;
41685;SDS011;27370;42.764;23.432;2023-07-29T12:36:04;3.55;;;1.10;;
41685;SDS011;27370;42.764;23.432;2023-07-29T12:38:30;2.05;;;1.20;;
41685;SDS011;27370;42.764;23.432;2023-07-29T12:40:56;1.88;;;1.30;;
41685;SDS011;27370;42.764;23.432;2023-07-29T12:43:22;3.10;;;1.40;;
41685;SDS011;27370;42.764;23.432;2023-07-29T12:45:50;5.47;;;1.45;;
41685;SDS011;27370;42.764;23.432;2023-07-29T12:48:16;3.75;;;1.42;;
41685;SDS011;27370;42.764;23.432;2023-07-29T12:50:42;3.20;;;1.40;;
41685;SDS011;27370;42.764;23.432;2023-07-29T12:53:08;3.33;;;1.38;;
41685;SDS011;27370;42.764;23.432;2023-07-29T12:55:37;3.17;;;1.52;;
41685;SDS011;27370;42.764;23.432;2023-07-29T12:58:03;4.55;;;1.60;;
41685;SDS011;27370;42.764;23.432;2023-07-29T13:00:29;3.33;;;1.50;;
41685;SDS011;27370;42.764;23.432;2023-07-29T13:02:54;2.92;;;1.60;;
41685;SDS011;27370;42.764;23.432;2023-07-29T13:05:20;3.47;;;1.70;;
41685;SDS011;27370;42.764;23.432;2023-07-29T13:07:46;2.55;;;1.40;;
41685;SDS011;27370;42.764;23.432;2023-07-29T13:10:12;2.17;;;1.17;;
41685;SDS011;27370;42.764;23.432;2023-07-29T13:12:37;4.18;;;1.30;;
41685;SDS011;27370;42.764;23.432;2023-07-29T13:15:03;2.15;;;1.27;;
41685;SDS011;27370;42.764;23.432;2023-07-29T13:17:30;2.67;;;1.58;;
41685;SDS011;27370;42.764;23.432;2023-07-29T13:19:55;4.80;;;1.60;;
41685;SDS011;27370;42.764;23.432;2023-07-29T13:22:21;2.70;;;1.45;;
41685;SDS011;27370;42.764;23.432;2023-07-29T13:24:46;2.88;;;1.40;;
41685;SDS011;27370;42.764;23.432;2023-07-29T13:27:12;2.78;;;1.27;;
41685;SDS011;27370;42.764;23.432;2023-07-29T13:29:38;3.42;;;1.55;;
41685;SDS011;27370;42.764;23.432;2023-07-29T13:32:05;2.97;;;1.48;;
41685;SDS011;27370;42.764;23.432;2023-07-29T13:34:31;4.68;;;1.40;;
41685;SDS011;27370;42.764;23.432;2023-07-29T13:36:56;7.78;;;1.52;;
41685;SDS011;27370;42.764;23.432;2023-07-29T13:39:22;3.03;;;1.35;;
41685;SDS011;27370;42.764;23.432;2023-07-29T13:41:47;3.08;;;1.30;;
41685;SDS011;27370;42.764;23.432;2023-07-29T13:44:13;2.72;;;1.60;;
41685;SDS011;27370;42.764;23.432;2023-07-29T13:46:38;3.60;;;1.67;;
41685;SDS011;27370;42.764;23.432;2023-07-29T13:49:04;2.67;;;1.70;;
41685;SDS011;27370;42.764;23.432;2023-07-29T13:51:29;3.58;;;1.73;;
41685;SDS011;27370;42.764;23.432;2023-07-29T13:53:55;2.15;;;1.42;;
41685;SDS011;27370;42.764;23.432;2023-07-29T13:56:21;5.47;;;1.85;;
41685;SDS011;27370;42.764;23.432;2023-07-29T13:58:47;2.60;;;1.60;;
41685;SDS011;27370;42.764;23.432;2023-07-29T14:01:12;3.78;;;1.70;;
41685;SDS011;27370;42.764;23.432;2023-07-29T14:03:38;2.55;;;1.67;;
41685;SDS011;27370;42.764;23.432;2023-07-29T14:06:04;2.72;;;1.75;;
41685;SDS011;27370;42.764;23.432;2023-07-29T14:08:29;2.63;;;1.65;;
41685;SDS011;27370;42.764;23.432;2023-07-29T14:10:55;4.63;;;1.70;;
41685;SDS011;27370;42.764;23.432;2023-07-29T14:13:21;6.22;;;1.80;;
41685;SDS011;27370;42.764;23.432;2023-07-29T14:15:46;3.63;;;1.70;;
41685;SDS011;27370;42.764;23.432;2023-07-29T14:18:12;3.38;;;1.40;;
41685;SDS011;27370;42.764;23.432;2023-07-29T14:20:37;1.90;;;1.50;;
41685;SDS011;27370;42.764;23.432;2023-07-29T14:23:03;2.75;;;1.60;;
41685;SDS011;27370;42.764;23.432;2023-07-29T14:25:28;3.08;;;1.55;;
41685;SDS011;27370;42.764;23.432;2023-07-29T14:27:54;2.00;;;1.40;;
41685;SDS011;27370;42.764;23.432;2023-07-29T14:30:20;3.08;;;1.60;;
41685;SDS011;27370;42.764;23.432;2023-07-29T14:32:45;3.47;;;1.75;;
41685;SDS011;27370;42.764;23.432;2023-07-29T14:35:11;2.80;;;1.63;;
41685;SDS011;27370;42.764;23.432;2023-07-29T14:37:37;4.60;;;1.83;;
41685;SDS011;27370;42.764;23.432;2023-07-29T14:40:03;3.25;;;1.92;;
41685;SDS011;27370;42.764;23.432;2023-07-29T14:42:29;4.05;;;1.80;;
41685;SDS011;27370;42.764;23.432;2023-07-29T14:44:55;2.70;;;1.50;;
41685;SDS011;27370;42.764;23.432;2023-07-29T14:47:20;2.83;;;1.80;;
41685;SDS011;27370;42.764;23.432;2023-07-29T14:49:46;3.17;;;1.75;;
41685;SDS011;27370;42.764;23.432;2023-07-29T14:52:12;2.15;;;1.42;;
41685;SDS011;27370;42.764;23.432;2023-07-29T14:54:38;6.03;;;1.73;;
41685;SDS011;27370;42.764;23.432;2023-07-29T14:57:05;3.35;;;1.70;;
41685;SDS011;27370;42.764;23.432;2023-07-29T14:59:32;2.58;;;1.70;;
41685;SDS011;27370;42.764;23.432;2023-07-29T15:01:58;3.55;;;1.70;;
41685;SDS011;27370;42.764;23.432;2023-07-29T15:04:24;3.63;;;1.55;;